Airfield :
LOGIN :

Register | Disclaimer

   EN    FR    IT 

 










Legend :    VFR   Marginal VFR   IFR   Intensive IFR   Very Intensive IFR
Visi :
Ceiling :
>= 8 km
>= 3000ft
5 to 8 km
1000 to 3000 ft
1500m to 5 km
500 to 1000 ft
800 to 1500m
200 to 500 ft
< 800m
< 200 ft
Symbols :   Thunderstorms  Fog  Heavy snow  Heavy precipitations  Wind > 20 kt
SIGMETs :     Misc.  Thunderstorms  Icing  Turbulence  Mountain Waves  Volcanic Ashes






- Airport Elevation : 37 ft
- IATA code : HLY


EGOV - RAF Valley

CURRENT METAR :
  • 071450Z 26019KT 9999 FEW020 15/08 Q1013 TEMPO SCT018CB RMK BLU TEMPO WHT

EXPIRED METARs :
  • 071420Z 25020KT 9999 FEW026 15/08 Q1013 TEMPO 7000 SHRA SCT020CB RMK BLU TEMPO WHT
  • 071350Z 25013KT 9999 VCSH FEW024CB 15/10 Q1013 TEMPO SCT020CB RMK BLU TEMPO WHT
  • 071320Z 25017KT 9999 VCSH FEW031 16/09 Q1013 BECMG SCT018CB RMK BLU BECMG WHT
  • 071250Z 25018KT 9999 FEW026 16/09 Q1013 BECMG SCT018CB RMK BLU BECMG WHT
  • 071220Z 27014KT 9999 SCT032 SCT049 15/10 Q1013 BECMG SCT018CB RMK BLU BECMG WHT

TAF TAF EGOV
Valid from the 07 at 15:00 until the 07 at 19:00 UTC


071327Z 0715/0719 25016KT 9999 FEW020 SCT030
PROB30
TEMPO 0715/0719 26016G26KT 3000 +SHRA SCT018CB



MET'MAP, your aeronautical weather chart ! - Copyright ORBIFLY December 2007 - Disclaimer

ORBIFLY MET'MAP TEAM :

Programming & Development : Alexandra Zaïnal
Original concept : Baudouin d'Aumeries
Technical & hardware support : Manuel Goepfert
Assistance : Marc-Olivier Méhu




SOURCES & CREDITS :

   NOAA